Capitol Logistics 321


KMCI
Kansas City International Airport
Kansas City, Missouri, US
KRFD
Chicago/Rockford International Airport
Rockford, Illinois, US

Activity Log

Date Flight Route Aircraft Duration
12/17/2020 CPX321 ROYAL9 BODYN IOW RFD B763 1h 09m
02/04/2020 CPX321 ROYAL9 BODYN MZV RFD B763 1h 08m
09/18/2019 CPX321 ROYAL9 BODYN MZV RFD B763 0h 57m
04/14/2019 CPX321 KIVDE V502 IRK J232 MZV B763 1h 12m
04/03/2019 CPX321 ROYAL9 BODYN MZV RFD B763 1h 04m

Route Details

Aircraft Information
Primary: Boeing 767-300BDSF
Backup: Boeing 757-200SF
Route Data
Distance: 309nm
Sched. Duration: 1h 10m
Avg. Duration: 0h 98m (-12m)
Times Flown: 5
Recm'd Route: ROYAL9 BODYN MZV RFD
Planned Altitude: 33,000ft
Origin Wx: KMCI 221553Z 02008KT 10SM BKN018 BKN120 M01/M06 A3026 RMK AO2 SLP254 T10061061
Dest. Wx: KRFD 221554Z 33012KT 10SM CLR M11/M19 A3019 RMK AO2 SLP237 T11061189
Notes:

Financial History
Total Freight: 476,058lbs
Average Load: 95,212lbs/flt
Fuel Used: 53,743lbs
Avg. Fuel Used: 10,749lbs/flt
Fuel Expense: $59,117
Avg. Fuel Expense: $11,823
Avg. Fuel Cost: $1.10/lbs
Total Gross Income: $613,594
Pilot Pay: $1,125
Total Expenses: $66,528
Total Revenue: $486,673
Average Revenue: $122,718.82